sensor_id;sensor_type;location;lat;lon;timestamp;pressure;altitude;pressure_sealevel;temperature;humidity
13235;BME280;6683;48.506;9.050;2023-08-08T00:01:33;98320.66;;;14.18;64.55
13235;BME280;6683;48.506;9.050;2023-08-08T00:04:35;98312.06;;;14.16;64.98
13235;BME280;6683;48.506;9.050;2023-08-08T00:07:38;98314.75;;;14.16;64.75
13235;BME280;6683;48.506;9.050;2023-08-08T00:10:40;98307.16;;;14.13;64.68
13235;BME280;6683;48.506;9.050;2023-08-08T00:13:42;98315.75;;;14.08;64.36
13235;BME280;6683;48.506;9.050;2023-08-08T00:16:45;98319.03;;;14.04;64.79
13235;BME280;6683;48.506;9.050;2023-08-08T00:19:47;98306.16;;;14.01;64.82
13235;BME280;6683;48.506;9.050;2023-08-08T00:22:49;98309.81;;;14.00;65.04
13235;BME280;6683;48.506;9.050;2023-08-08T00:25:51;98307.78;;;14.02;65.01
13235;BME280;6683;48.506;9.050;2023-08-08T00:28:53;98302.47;;;14.02;65.00
13235;BME280;6683;48.506;9.050;2023-08-08T00:31:57;98301.47;;;14.03;65.30
13235;BME280;6683;48.506;9.050;2023-08-08T00:34:59;98297.81;;;14.04;65.29
13235;BME280;6683;48.506;9.050;2023-08-08T00:38:01;98304.72;;;14.05;65.62
13235;BME280;6683;48.506;9.050;2023-08-08T00:41:03;98309.81;;;14.06;65.53
13235;BME280;6683;48.506;9.050;2023-08-08T00:44:06;98310.25;;;14.10;65.62
13235;BME280;6683;48.506;9.050;2023-08-08T00:47:09;98307.16;;;14.13;65.81
13235;BME280;6683;48.506;9.050;2023-08-08T00:50:13;98308.38;;;14.17;65.78
13235;BME280;6683;48.506;9.050;2023-08-08T00:53:16;98304.13;;;14.22;65.83
13235;BME280;6683;48.506;9.050;2023-08-08T00:56:19;98299.19;;;14.26;66.08
13235;BME280;6683;48.506;9.050;2023-08-08T00:59:21;98291.44;;;14.31;66.13
13235;BME280;6683;48.506;9.050;2023-08-08T01:02:24;98287.97;;;14.37;66.30
13235;BME280;6683;48.506;9.050;2023-08-08T01:05:33;98294.50;;;14.41;66.35
13235;BME280;6683;48.506;9.050;2023-08-08T01:08:45;98285.69;;;14.47;66.35
13235;BME280;6683;48.506;9.050;2023-08-08T01:11:50;98283.44;;;14.51;66.21
13235;BME280;6683;48.506;9.050;2023-08-08T01:14:54;98280.56;;;14.52;66.12
13235;BME280;6683;48.506;9.050;2023-08-08T01:17:58;98282.59;;;14.57;66.17
13235;BME280;6683;48.506;9.050;2023-08-08T01:21:00;98282.38;;;14.58;66.19
13235;BME280;6683;48.506;9.050;2023-08-08T01:24:16;98272.78;;;14.57;66.18
13235;BME280;6683;48.506;9.050;2023-08-08T01:27:18;98275.03;;;14.60;66.13
13235;BME280;6683;48.506;9.050;2023-08-08T01:30:21;98274.84;;;14.55;66.08
13235;BME280;6683;48.506;9.050;2023-08-08T01:33:23;98275.25;;;14.52;66.28
13235;BME280;6683;48.506;9.050;2023-08-08T01:36:30;98279.94;;;14.50;66.20
13235;BME280;6683;48.506;9.050;2023-08-08T01:39:35;98276.69;;;14.48;66.26
13235;BME280;6683;48.506;9.050;2023-08-08T01:42:40;98266.06;;;14.48;66.44
13235;BME280;6683;48.506;9.050;2023-08-08T01:45:44;98270.38;;;14.49;66.47
13235;BME280;6683;48.506;9.050;2023-08-08T01:48:46;98257.69;;;14.51;66.43
13235;BME280;6683;48.506;9.050;2023-08-08T01:51:48;98262.56;;;14.54;66.58
13235;BME280;6683;48.506;9.050;2023-08-08T01:54:52;98265.22;;;14.54;66.54
13235;BME280;6683;48.506;9.050;2023-08-08T01:57:55;98258.31;;;14.53;66.35
13235;BME280;6683;48.506;9.050;2023-08-08T02:00:57;98259.13;;;14.54;66.69
13235;BME280;6683;48.506;9.050;2023-08-08T02:03:59;98259.91;;;14.54;66.65
13235;BME280;6683;48.506;9.050;2023-08-08T02:07:01;98253.81;;;14.54;66.62
13235;BME280;6683;48.506;9.050;2023-08-08T02:10:05;98256.66;;;14.52;66.74
13235;BME280;6683;48.506;9.050;2023-08-08T02:13:07;98250.75;;;14.50;66.60
13235;BME280;6683;48.506;9.050;2023-08-08T02:16:09;98262.41;;;14.49;66.46
13235;BME280;6683;48.506;9.050;2023-08-08T02:19:11;98260.75;;;14.48;66.70
13235;BME280;6683;48.506;9.050;2023-08-08T02:22:14;98257.09;;;14.49;66.85
13235;BME280;6683;48.506;9.050;2023-08-08T02:25:17;98260.34;;;14.51;66.87
13235;BME280;6683;48.506;9.050;2023-08-08T02:28:19;98249.28;;;14.54;66.78
13235;BME280;6683;48.506;9.050;2023-08-08T02:31:21;98254.59;;;14.54;66.91
13235;BME280;6683;48.506;9.050;2023-08-08T02:34:24;98253.81;;;14.54;66.81
13235;BME280;6683;48.506;9.050;2023-08-08T02:37:26;98248.69;;;14.52;67.05
13235;BME280;6683;48.506;9.050;2023-08-08T02:40:29;98256.47;;;14.54;66.96
13235;BME280;6683;48.506;9.050;2023-08-08T02:43:32;98254.59;;;14.54;67.10
13235;BME280;6683;48.506;9.050;2023-08-08T02:46:34;98254.19;;;14.57;67.26
13235;BME280;6683;48.506;9.050;2023-08-08T02:49:38;98252.16;;;14.59;67.22
13235;BME280;6683;48.506;9.050;2023-08-08T02:52:40;98245.38;;;14.63;67.40
13235;BME280;6683;48.506;9.050;2023-08-08T02:55:43;98241.50;;;14.66;67.38
13235;BME280;6683;48.506;9.050;2023-08-08T02:58:45;98244.16;;;14.66;67.10
13235;BME280;6683;48.506;9.050;2023-08-08T03:01:47;98242.50;;;14.65;67.06
13235;BME280;6683;48.506;9.050;2023-08-08T03:04:50;98247.22;;;14.63;67.15
13235;BME280;6683;48.506;9.050;2023-08-08T03:07:52;98248.25;;;14.62;67.12
13235;BME280;6683;48.506;9.050;2023-08-08T03:10:55;98247.66;;;14.60;67.29
13235;BME280;6683;48.506;9.050;2023-08-08T03:13:57;98246.00;;;14.59;67.30
13235;BME280;6683;48.506;9.050;2023-08-08T03:16:59;98242.75;;;14.57;67.26
13235;BME280;6683;48.506;9.050;2023-08-08T03:20:02;98250.34;;;14.53;67.24
13235;BME280;6683;48.506;9.050;2023-08-08T03:23:06;98243.38;;;14.52;67.13
13235;BME280;6683;48.506;9.050;2023-08-08T03:26:10;98233.78;;;14.51;67.41
13235;BME280;6683;48.506;9.050;2023-08-08T03:29:12;98239.09;;;14.51;67.44
13235;BME280;6683;48.506;9.050;2023-08-08T03:32:14;98230.09;;;14.52;67.46
13235;BME280;6683;48.506;9.050;2023-08-08T03:35:16;98238.66;;;14.54;67.51
13235;BME280;6683;48.506;9.050;2023-08-08T03:38:18;98231.31;;;14.56;67.64
13235;BME280;6683;48.506;9.050;2023-08-08T03:41:22;98239.09;;;14.58;67.63
13235;BME280;6683;48.506;9.050;2023-08-08T03:44:24;98240.50;;;14.60;67.56
13235;BME280;6683;48.506;9.050;2023-08-08T03:47:26;98244.19;;;14.59;67.56
13235;BME280;6683;48.506;9.050;2023-08-08T03:50:28;98249.50;;;14.59;67.58
13235;BME280;6683;48.506;9.050;2023-08-08T03:53:30;98233.97;;;14.56;67.61
13235;BME280;6683;48.506;9.050;2023-08-08T03:56:34;98236.63;;;14.56;67.80
13235;BME280;6683;48.506;9.050;2023-08-08T03:59:36;98238.47;;;14.56;67.69
13235;BME280;6683;48.506;9.050;2023-08-08T04:02:38;98242.97;;;14.55;67.74
13235;BME280;6683;48.506;9.050;2023-08-08T04:05:40;98244.81;;;14.55;67.65
13235;BME280;6683;48.506;9.050;2023-08-08T04:08:42;98246.63;;;14.54;67.66
13235;BME280;6683;48.506;9.050;2023-08-08T04:11:46;98243.38;;;14.52;67.66
13235;BME280;6683;48.506;9.050;2023-08-08T04:14:48;98255.03;;;14.51;67.58
13235;BME280;6683;48.506;9.050;2023-08-08T04:17:50;98247.47;;;14.48;67.58
13235;BME280;6683;48.506;9.050;2023-08-08T04:20:52;98253.22;;;14.45;67.51
13235;BME280;6683;48.506;9.050;2023-08-08T04:23:54;98254.66;;;14.41;67.57
13235;BME280;6683;48.506;9.050;2023-08-08T04:26:57;98256.91;;;14.37;67.50
13235;BME280;6683;48.506;9.050;2023-08-08T04:29:59;98260.00;;;14.34;67.54
13235;BME280;6683;48.506;9.050;2023-08-08T04:33:02;98257.97;;;14.30;67.63
13235;BME280;6683;48.506;9.050;2023-08-08T04:36:05;98255.69;;;14.27;67.65
13235;BME280;6683;48.506;9.050;2023-08-08T04:39:07;98264.06;;;14.24;67.59
13235;BME280;6683;48.506;9.050;2023-08-08T04:42:11;98253.84;;;14.21;67.67
13235;BME280;6683;48.506;9.050;2023-08-08T04:45:13;98257.75;;;14.18;67.63
13235;BME280;6683;48.506;9.050;2023-08-08T04:48:15;98245.72;;;14.16;67.87
13235;BME280;6683;48.506;9.050;2023-08-08T04:51:17;98259.78;;;14.16;67.86
13235;BME280;6683;48.506;9.050;2023-08-08T04:54:19;98263.47;;;14.15;67.74
13235;BME280;6683;48.506;9.050;2023-08-08T04:57:23;98269.78;;;14.14;67.98
13235;BME280;6683;48.506;9.050;2023-08-08T05:00:26;98269.38;;;14.17;68.17
13235;BME280;6683;48.506;9.050;2023-08-08T05:03:28;98260.81;;;14.22;68.26
13235;BME280;6683;48.506;9.050;2023-08-08T05:06:30;98264.69;;;14.26;68.29
13235;BME280;6683;48.506;9.050;2023-08-08T05:09:33;98263.28;;;14.30;68.38
13235;BME280;6683;48.506;9.050;2023-08-08T05:12:36;98267.13;;;14.34;68.28
13235;BME280;6683;48.506;9.050;2023-08-08T05:15:39;98271.00;;;14.38;68.39
13235;BME280;6683;48.506;9.050;2023-08-08T05:18:41;98272.00;;;14.43;68.39
13235;BME280;6683;48.506;9.050;2023-08-08T05:21:44;98267.72;;;14.49;68.42
13235;BME280;6683;48.506;9.050;2023-08-08T05:24:46;98262.78;;;14.53;68.43
13235;BME280;6683;48.506;9.050;2023-08-08T05:27:50;98253.16;;;14.58;68.40
13235;BME280;6683;48.506;9.050;2023-08-08T05:30:54;98255.00;;;14.64;68.46
13235;BME280;6683;48.506;9.050;2023-08-08T05:33:57;98256.22;;;14.68;68.58
13235;BME280;6683;48.506;9.050;2023-08-08T05:36:59;98243.91;;;14.74;68.95
13235;BME280;6683;48.506;9.050;2023-08-08T05:40:01;98246.09;;;14.83;69.07
13235;BME280;6683;48.506;9.050;2023-08-08T05:43:05;98252.59;;;14.94;69.08
13235;BME280;6683;48.506;9.050;2023-08-08T05:46:08;98258.06;;;15.05;69.11
13235;BME280;6683;48.506;9.050;2023-08-08T05:49:11;98255.53;;;15.17;69.09
13235;BME280;6683;48.506;9.050;2023-08-08T05:52:13;98256.69;;;15.28;69.26
13235;BME280;6683;48.506;9.050;2023-08-08T05:55:15;98249.88;;;15.38;69.25
13235;BME280;6683;48.506;9.050;2023-08-08T05:58:19;98251.88;;;15.49;69.31
13235;BME280;6683;48.506;9.050;2023-08-08T06:01:21;98253.63;;;15.62;69.22
13235;BME280;6683;48.506;9.050;2023-08-08T06:04:23;98249.81;;;15.76;69.26
13235;BME280;6683;48.506;9.050;2023-08-08T06:07:25;98247.63;;;15.91;69.49
13235;BME280;6683;48.506;9.050;2023-08-08T06:10:27;98259.13;;;16.10;69.52
13235;BME280;6683;48.506;9.050;2023-08-08T06:13:31;98252.22;;;16.27;69.27
13235;BME280;6683;48.506;9.050;2023-08-08T06:16:33;98249.31;;;16.46;69.35
13235;BME280;6683;48.506;9.050;2023-08-08T06:19:35;98235.78;;;16.66;69.11
13235;BME280;6683;48.506;9.050;2023-08-08T06:22:37;98237.75;;;16.89;68.85
13235;BME280;6683;48.506;9.050;2023-08-08T06:25:39;98239.34;;;17.08;68.85
13235;BME280;6683;48.506;9.050;2023-08-08T06:28:43;98236.16;;;17.29;68.62
13235;BME280;6683;48.506;9.050;2023-08-08T06:31:45;98230.91;;;17.52;68.42
13235;BME280;6683;48.506;9.050;2023-08-08T06:34:47;98239.19;;;17.74;68.10
13235;BME280;6683;48.506;9.050;2023-08-08T06:37:49;98241.53;;;17.93;68.20
13235;BME280;6683;48.506;9.050;2023-08-08T06:40:51;98241.97;;;18.13;67.64
13235;BME280;6683;48.506;9.050;2023-08-08T06:43:54;98237.09;;;18.33;67.41
13235;BME280;6683;48.506;9.050;2023-08-08T06:46:57;98238.56;;;18.53;67.14
13235;BME280;6683;48.506;9.050;2023-08-08T06:49:59;98228.53;;;18.71;66.79
13235;BME280;6683;48.506;9.050;2023-08-08T06:53:01;98223.59;;;18.91;66.47
13235;BME280;6683;48.506;9.050;2023-08-08T06:56:04;98229.00;;;19.08;66.17
13235;BME280;6683;48.506;9.050;2023-08-08T06:59:07;98214.56;;;19.26;65.84
13235;BME280;6683;48.506;9.050;2023-08-08T07:02:10;98218.44;;;19.46;65.27
13235;BME280;6683;48.506;9.050;2023-08-08T07:05:12;98220.41;;;19.67;64.79
13235;BME280;6683;48.506;9.050;2023-08-08T07:08:14;98225.75;;;19.84;64.38
13235;BME280;6683;48.506;9.050;2023-08-08T07:11:16;98227.38;;;20.02;63.95
13235;BME280;6683;48.506;9.050;2023-08-08T07:14:20;98223.84;;;20.18;63.52
13235;BME280;6683;48.506;9.050;2023-08-08T07:17:22;98225.13;;;20.32;62.98
13235;BME280;6683;48.506;9.050;2023-08-08T07:20:24;98218.59;;;20.44;62.63
13235;BME280;6683;48.506;9.050;2023-08-08T07:23:26;98219.31;;;20.56;62.18
13235;BME280;6683;48.506;9.050;2023-08-08T07:26:28;98215.19;;;20.70;61.89
13235;BME280;6683;48.506;9.050;2023-08-08T07:29:31;98211.88;;;20.85;61.40
13235;BME280;6683;48.506;9.050;2023-08-08T07:32:34;98206.41;;;21.02;60.81
13235;BME280;6683;48.506;9.050;2023-08-08T07:35:36;98208.22;;;21.18;60.22
13235;BME280;6683;48.506;9.050;2023-08-08T07:38:38;98207.53;;;21.32;59.83
13235;BME280;6683;48.506;9.050;2023-08-08T07:41:40;98210.63;;;21.46;59.42
13235;BME280;6683;48.506;9.050;2023-08-08T07:44:44;98205.63;;;21.60;58.58
13235;BME280;6683;48.506;9.050;2023-08-08T07:47:46;98205.75;;;21.75;58.38
13235;BME280;6683;48.506;9.050;2023-08-08T07:50:48;98206.72;;;21.90;58.07
13235;BME280;6683;48.506;9.050;2023-08-08T07:53:50;98204.38;;;22.04;57.59
13235;BME280;6683;48.506;9.050;2023-08-08T07:56:52;98202.84;;;22.18;57.13
13235;BME280;6683;48.506;9.050;2023-08-08T07:59:56;98203.75;;;22.34;56.72
13235;BME280;6683;48.506;9.050;2023-08-08T08:02:58;98190.34;;;22.44;56.11
13235;BME280;6683;48.506;9.050;2023-08-08T08:06:00;98195.22;;;22.52;55.70
13235;BME280;6683;48.506;9.050;2023-08-08T08:09:02;98191.78;;;22.61;55.08
13235;BME280;6683;48.506;9.050;2023-08-08T08:12:06;98195.84;;;22.69;54.10
13235;BME280;6683;48.506;9.050;2023-08-08T08:15:10;98194.53;;;22.71;53.72
13235;BME280;6683;48.506;9.050;2023-08-08T08:18:12;98197.22;;;22.76;53.69
13235;BME280;6683;48.506;9.050;2023-08-08T08:21:17;98204.22;;;22.77;52.89
13235;BME280;6683;48.506;9.050;2023-08-08T08:24:19;98198.56;;;22.79;52.40
13235;BME280;6683;48.506;9.050;2023-08-08T08:27:21;98201.00;;;22.80;52.00
13235;BME280;6683;48.506;9.050;2023-08-08T08:30:25;98204.22;;;22.82;51.58
13235;BME280;6683;48.506;9.050;2023-08-08T08:33:27;98198.06;;;22.87;51.78
13235;BME280;6683;48.506;9.050;2023-08-08T08:36:29;98197.53;;;22.95;51.53
13235;BME280;6683;48.506;9.050;2023-08-08T08:39:31;98194.06;;;23.04;52.27
13235;BME280;6683;48.506;9.050;2023-08-08T08:42:34;98190.59;;;23.19;51.85
13235;BME280;6683;48.506;9.050;2023-08-08T08:45:38;98183.59;;;23.28;51.87
13235;BME280;6683;48.506;9.050;2023-08-08T08:48:42;98183.13;;;23.36;51.49
13235;BME280;6683;48.506;9.050;2023-08-08T08:51:45;98184.72;;;23.47;51.22
13235;BME280;6683;48.506;9.050;2023-08-08T08:54:48;98185.00;;;23.56;50.77
13235;BME280;6683;48.506;9.050;2023-08-08T08:57:50;98184.44;;;23.69;50.98
13235;BME280;6683;48.506;9.050;2023-08-08T09:00:54;98175.78;;;23.87;50.51
13235;BME280;6683;48.506;9.050;2023-08-08T09:03:57;98173.91;;;23.93;49.41
13235;BME280;6683;48.506;9.050;2023-08-08T09:07:00;98180.38;;;23.97;49.59
13235;BME280;6683;48.506;9.050;2023-08-08T09:10:03;98184.94;;;24.01;49.42
13235;BME280;6683;48.506;9.050;2023-08-08T09:13:05;98180.91;;;24.04;49.09
13235;BME280;6683;48.506;9.050;2023-08-08T09:16:09;98186.06;;;24.05;48.69
13235;BME280;6683;48.506;9.050;2023-08-08T09:19:13;98185.22;;;24.10;48.65
13235;BME280;6683;48.506;9.050;2023-08-08T09:22:15;98176.84;;;24.16;48.47
13235;BME280;6683;48.506;9.050;2023-08-08T09:25:18;98182.50;;;24.25;48.27
13235;BME280;6683;48.506;9.050;2023-08-08T09:28:20;98175.16;;;24.35;48.18
13235;BME280;6683;48.506;9.050;2023-08-08T09:31:24;98170.00;;;24.44;47.60
13235;BME280;6683;48.506;9.050;2023-08-08T09:34:26;98169.47;;;24.42;47.17
13235;BME280;6683;48.506;9.050;2023-08-08T09:37:30;98162.75;;;24.39;46.78
13235;BME280;6683;48.506;9.050;2023-08-08T09:40:32;98167.59;;;24.37;46.61
13235;BME280;6683;48.506;9.050;2023-08-08T09:43:35;98156.28;;;24.40;46.66
13235;BME280;6683;48.506;9.050;2023-08-08T09:46:39;98168.09;;;24.49;46.88
13235;BME280;6683;48.506;9.050;2023-08-08T09:49:42;98156.16;;;24.66;46.86
13235;BME280;6683;48.506;9.050;2023-08-08T09:52:46;98161.25;;;24.82;46.74
13235;BME280;6683;48.506;9.050;2023-08-08T09:55:49;98154.94;;;24.97;46.35
13235;BME280;6683;48.506;9.050;2023-08-08T09:58:51;98150.81;;;25.09;46.74
13235;BME280;6683;48.506;9.050;2023-08-08T10:01:56;98143.66;;;25.23;45.84
13235;BME280;6683;48.506;9.050;2023-08-08T10:04:59;98152.25;;;25.30;45.08
13235;BME280;6683;48.506;9.050;2023-08-08T10:08:01;98144.94;;;25.36;45.00
13235;BME280;6683;48.506;9.050;2023-08-08T10:11:05;98141.63;;;25.49;45.28
13235;BME280;6683;48.506;9.050;2023-08-08T10:14:10;98144.13;;;25.69;45.06
13235;BME280;6683;48.506;9.050;2023-08-08T10:17:15;98131.66;;;25.73;44.34
13235;BME280;6683;48.506;9.050;2023-08-08T10:20:19;98132.78;;;25.67;44.01
13235;BME280;6683;48.506;9.050;2023-08-08T10:23:21;98135.72;;;25.71;44.40
13235;BME280;6683;48.506;9.050;2023-08-08T10:26:24;98135.41;;;25.72;44.53
13235;BME280;6683;48.506;9.050;2023-08-08T10:29:32;98129.69;;;25.79;44.62
13235;BME280;6683;48.506;9.050;2023-08-08T10:32:40;98143.66;;;25.91;44.51
13235;BME280;6683;48.506;9.050;2023-08-08T10:35:57;98129.19;;;26.00;44.10
13235;BME280;6683;48.506;9.050;2023-08-08T10:38:59;98131.88;;;26.05;43.93
13235;BME280;6683;48.506;9.050;2023-08-08T10:42:04;98128.69;;;25.98;43.31
13235;BME280;6683;48.506;9.050;2023-08-08T10:45:10;98132.41;;;26.02;43.68
13235;BME280;6683;48.506;9.050;2023-08-08T10:48:15;98119.16;;;26.30;43.10
13235;BME280;6683;48.506;9.050;2023-08-08T10:51:19;98121.69;;;26.45;42.33
13235;BME280;6683;48.506;9.050;2023-08-08T10:54:24;98121.84;;;26.53;42.37
13235;BME280;6683;48.506;9.050;2023-08-08T10:57:29;98115.19;;;26.83;41.91
13235;BME280;6683;48.506;9.050;2023-08-08T11:00:34;98118.56;;;26.75;41.97
13235;BME280;6683;48.506;9.050;2023-08-08T11:03:39;98124.47;;;26.58;41.55
13235;BME280;6683;48.506;9.050;2023-08-08T11:06:41;98118.00;;;26.36;41.58
13235;BME280;6683;48.506;9.050;2023-08-08T11:09:43;98115.06;;;26.74;41.49
13235;BME280;6683;48.506;9.050;2023-08-08T11:12:58;98120.03;;;27.05;40.45
13235;BME280;6683;48.506;9.050;2023-08-08T11:16:00;98112.69;;;27.24;40.05
13235;BME280;6683;48.506;9.050;2023-08-08T11:19:05;98103.34;;;27.48;39.03
13235;BME280;6683;48.506;9.050;2023-08-08T11:22:10;98106.81;;;27.67;38.15
13235;BME280;6683;48.506;9.050;2023-08-08T11:25:15;98099.53;;;27.95;37.17
13235;BME280;6683;48.506;9.050;2023-08-08T11:28:17;98109.00;;;28.25;37.21
13235;BME280;6683;48.506;9.050;2023-08-08T11:31:20;98097.59;;;28.50;37.17
13235;BME280;6683;48.506;9.050;2023-08-08T11:34:24;98096.56;;;28.73;36.90
13235;BME280;6683;48.506;9.050;2023-08-08T11:37:26;98086.53;;;28.96;36.65
13235;BME280;6683;48.506;9.050;2023-08-08T11:40:30;98087.47;;;28.91;36.90
13235;BME280;6683;48.506;9.050;2023-08-08T11:43:32;98096.06;;;28.71;36.89
13235;BME280;6683;48.506;9.050;2023-08-08T11:46:35;98090.81;;;28.75;36.96
13235;BME280;6683;48.506;9.050;2023-08-08T11:49:46;98085.19;;;28.85;36.73
13235;BME280;6683;48.506;9.050;2023-08-08T11:52:48;98077.72;;;28.90;36.55
13235;BME280;6683;48.506;9.050;2023-08-08T11:55:50;98081.53;;;28.89;35.96
13235;BME280;6683;48.506;9.050;2023-08-08T11:58:52;98080.44;;;28.90;36.18
13235;BME280;6683;48.506;9.050;2023-08-08T12:01:56;98074.19;;;28.90;36.68
13235;BME280;6683;48.506;9.050;2023-08-08T12:05:05;98079.69;;;28.98;36.67
13235;BME280;6683;48.506;9.050;2023-08-08T12:08:08;98084.28;;;29.11;36.92
13235;BME280;6683;48.506;9.050;2023-08-08T12:11:12;98080.66;;;29.16;36.05
13235;BME280;6683;48.506;9.050;2023-08-08T12:14:14;98070.69;;;29.11;35.16
13235;BME280;6683;48.506;9.050;2023-08-08T12:17:17;98068.00;;;28.98;35.60
13235;BME280;6683;48.506;9.050;2023-08-08T12:20:20;98066.09;;;28.98;35.63
13235;BME280;6683;48.506;9.050;2023-08-08T12:23:22;98064.56;;;29.06;35.66
13235;BME280;6683;48.506;9.050;2023-08-08T12:26:24;98058.63;;;29.04;34.83
13235;BME280;6683;48.506;9.050;2023-08-08T12:29:28;98057.44;;;28.96;35.32
13235;BME280;6683;48.506;9.050;2023-08-08T12:32:30;98051.94;;;28.88;35.45
13235;BME280;6683;48.506;9.050;2023-08-08T12:35:35;98055.78;;;28.87;35.46
13235;BME280;6683;48.506;9.050;2023-08-08T12:38:37;98049.22;;;28.88;35.38
13235;BME280;6683;48.506;9.050;2023-08-08T12:41:39;98049.53;;;28.86;35.68
13235;BME280;6683;48.506;9.050;2023-08-08T12:44:41;98053.84;;;28.87;34.95
13235;BME280;6683;48.506;9.050;2023-08-08T12:47:43;98052.19;;;28.78;34.68
13235;BME280;6683;48.506;9.050;2023-08-08T12:50:47;98052.78;;;28.75;34.81
13235;BME280;6683;48.506;9.050;2023-08-08T12:53:50;98053.91;;;28.74;35.28
13235;BME280;6683;48.506;9.050;2023-08-08T12:56:52;98044.47;;;28.71;34.77
13235;BME280;6683;48.506;9.050;2023-08-08T12:59:54;98040.84;;;28.62;34.95
13235;BME280;6683;48.506;9.050;2023-08-08T13:02:56;98031.00;;;28.53;34.42
13235;BME280;6683;48.506;9.050;2023-08-08T13:06:00;98027.00;;;28.50;34.66
13235;BME280;6683;48.506;9.050;2023-08-08T13:09:02;98028.22;;;28.58;35.20
13235;BME280;6683;48.506;9.050;2023-08-08T13:12:05;98026.06;;;28.68;35.33
13235;BME280;6683;48.506;9.050;2023-08-08T13:15:09;98023.72;;;28.75;36.02
13235;BME280;6683;48.506;9.050;2023-08-08T13:18:11;98026.31;;;28.80;35.24
13235;BME280;6683;48.506;9.050;2023-08-08T13:21:14;98016.56;;;28.79;35.23
13235;BME280;6683;48.506;9.050;2023-08-08T13:24:16;98021.31;;;28.74;34.73
13235;BME280;6683;48.506;9.050;2023-08-08T13:27:19;98017.94;;;28.68;34.75
13235;BME280;6683;48.506;9.050;2023-08-08T13:30:21;98020.63;;;28.68;34.71
13235;BME280;6683;48.506;9.050;2023-08-08T13:33:23;98024.47;;;28.67;35.71
13235;BME280;6683;48.506;9.050;2023-08-08T13:36:27;98022.22;;;28.69;35.11
13235;BME280;6683;48.506;9.050;2023-08-08T13:39:29;98022.38;;;28.64;35.06
13235;BME280;6683;48.506;9.050;2023-08-08T13:42:31;98020.25;;;28.61;35.28
13235;BME280;6683;48.506;9.050;2023-08-08T13:45:34;98016.22;;;28.59;35.33
13235;BME280;6683;48.506;9.050;2023-08-08T13:48:36;98017.03;;;28.45;35.48
13235;BME280;6683;48.506;9.050;2023-08-08T13:51:39;98021.22;;;28.29;35.32
13235;BME280;6683;48.506;9.050;2023-08-08T13:54:42;98025.97;;;28.10;35.63
13235;BME280;6683;48.506;9.050;2023-08-08T13:57:44;98029.56;;;27.92;36.11
13235;BME280;6683;48.506;9.050;2023-08-08T14:00:46;98033.97;;;27.75;36.00
13235;BME280;6683;48.506;9.050;2023-08-08T14:03:48;98029.75;;;27.55;35.74
13235;BME280;6683;48.506;9.050;2023-08-08T14:06:51;98031.44;;;27.37;36.31
13235;BME280;6683;48.506;9.050;2023-08-08T14:09:54;98030.06;;;27.21;36.56
13235;BME280;6683;48.506;9.050;2023-08-08T14:12:57;98036.56;;;27.07;36.58
13235;BME280;6683;48.506;9.050;2023-08-08T14:15:59;98037.03;;;26.95;36.52
13235;BME280;6683;48.506;9.050;2023-08-08T14:19:01;98033.38;;;26.86;37.00
13235;BME280;6683;48.506;9.050;2023-08-08T14:22:05;98028.13;;;26.76;36.37
13235;BME280;6683;48.506;9.050;2023-08-08T14:25:08;98040.97;;;26.65;36.74
13235;BME280;6683;48.506;9.050;2023-08-08T14:28:10;98043.22;;;26.58;37.06
13235;BME280;6683;48.506;9.050;2023-08-08T14:31:12;98041.19;;;26.50;37.40
13235;BME280;6683;48.506;9.050;2023-08-08T14:34:15;98032.34;;;26.45;37.25
13235;BME280;6683;48.506;9.050;2023-08-08T14:37:18;98038.94;;;26.39;37.79
13235;BME280;6683;48.506;9.050;2023-08-08T14:40:20;98042.72;;;26.38;38.13
13235;BME280;6683;48.506;9.050;2023-08-08T14:43:23;98037.34;;;26.33;37.87
13235;BME280;6683;48.506;9.050;2023-08-08T14:46:25;98039.03;;;26.29;37.85
13235;BME280;6683;48.506;9.050;2023-08-08T14:49:27;98048.06;;;26.24;38.01
13235;BME280;6683;48.506;9.050;2023-08-08T14:52:30;98048.63;;;26.21;38.22
13235;BME280;6683;48.506;9.050;2023-08-08T14:55:33;98045.69;;;26.18;38.52
13235;BME280;6683;48.506;9.050;2023-08-08T14:58:35;98037.94;;;26.11;38.35
13235;BME280;6683;48.506;9.050;2023-08-08T15:01:37;98047.69;;;26.07;38.72
13235;BME280;6683;48.506;9.050;2023-08-08T15:04:39;98046.88;;;26.06;38.88
13235;BME280;6683;48.506;9.050;2023-08-08T15:07:42;98052.28;;;26.06;38.84
13235;BME280;6683;48.506;9.050;2023-08-08T15:10:45;98052.28;;;26.06;38.78
13235;BME280;6683;48.506;9.050;2023-08-08T15:13:47;98050.97;;;26.04;38.99
13235;BME280;6683;48.506;9.050;2023-08-08T15:16:50;98054.03;;;25.97;38.67
13235;BME280;6683;48.506;9.050;2023-08-08T15:19:52;98039.75;;;25.92;38.91
13235;BME280;6683;48.506;9.050;2023-08-08T15:22:56;98041.44;;;25.88;39.11
13235;BME280;6683;48.506;9.050;2023-08-08T15:25:58;98038.22;;;25.86;39.23
13235;BME280;6683;48.506;9.050;2023-08-08T15:29:00;98037.19;;;25.82;39.40
13235;BME280;6683;48.506;9.050;2023-08-08T15:32:03;98035.84;;;25.79;39.29
13235;BME280;6683;48.506;9.050;2023-08-08T15:35:06;98037.00;;;25.73;39.76
13235;BME280;6683;48.506;9.050;2023-08-08T15:38:11;98040.34;;;25.65;39.54
13235;BME280;6683;48.506;9.050;2023-08-08T15:41:13;98055.53;;;25.61;39.84
13235;BME280;6683;48.506;9.050;2023-08-08T15:44:15;98050.47;;;25.55;39.97
13235;BME280;6683;48.506;9.050;2023-08-08T15:47:17;98063.78;;;25.46;39.96
13235;BME280;6683;48.506;9.050;2023-08-08T15:50:19;98057.94;;;25.34;40.20
13235;BME280;6683;48.506;9.050;2023-08-08T15:53:23;98057.72;;;25.25;40.21
13235;BME280;6683;48.506;9.050;2023-08-08T15:56:28;98051.03;;;25.18;40.57
13235;BME280;6683;48.506;9.050;2023-08-08T15:59:30;98048.94;;;25.10;40.57
13235;BME280;6683;48.506;9.050;2023-08-08T16:02:32;98051.97;;;25.03;40.67
13235;BME280;6683;48.506;9.050;2023-08-08T16:05:34;98055.78;;;24.97;40.99
13235;BME280;6683;48.506;9.050;2023-08-08T16:08:38;98052.88;;;24.94;40.97
13235;BME280;6683;48.506;9.050;2023-08-08T16:11:40;98053.69;;;24.94;40.90
13235;BME280;6683;48.506;9.050;2023-08-08T16:14:42;98060.94;;;24.99;40.94
13235;BME280;6683;48.506;9.050;2023-08-08T16:17:45;98052.78;;;25.04;41.16
13235;BME280;6683;48.506;9.050;2023-08-08T16:20:47;98058.66;;;25.11;41.27